sensor_id;sensor_type;location;lat;lon;timestamp;temperature;humidity
5457;DHT22;2751;49.802;9.944;2022-12-18T00:01:53;-8.10;99.90
5457;DHT22;2751;49.802;9.944;2022-12-18T00:04:23;-8.10;99.90
5457;DHT22;2751;49.802;9.944;2022-12-18T00:06:50;-8.10;99.90
5457;DHT22;2751;49.802;9.944;2022-12-18T00:09:17;-8.00;99.90
5457;DHT22;2751;49.802;9.944;2022-12-18T00:11:44;-8.20;99.90
5457;DHT22;2751;49.802;9.944;2022-12-18T00:14:12;-8.30;99.90
5457;DHT22;2751;49.802;9.944;2022-12-18T00:16:42;-8.30;99.90
5457;DHT22;2751;49.802;9.944;2022-12-18T00:19:10;-8.40;99.90
5457;DHT22;2751;49.802;9.944;2022-12-18T00:21:38;-8.30;99.90
5457;DHT22;2751;49.802;9.944;2022-12-18T00:24:06;-8.30;99.90
5457;DHT22;2751;49.802;9.944;2022-12-18T00:26:34;-8.30;99.90
5457;DHT22;2751;49.802;9.944;2022-12-18T00:29:04;-8.30;99.90
5457;DHT22;2751;49.802;9.944;2022-12-18T00:31:31;-8.20;99.90
5457;DHT22;2751;49.802;9.944;2022-12-18T00:33:58;-8.30;99.90
5457;DHT22;2751;49.802;9.944;2022-12-18T00:36:27;-8.30;99.90
5457;DHT22;2751;49.802;9.944;2022-12-18T00:38:57;-8.30;99.90
5457;DHT22;2751;49.802;9.944;2022-12-18T00:41:25;-8.30;99.90
5457;DHT22;2751;49.802;9.944;2022-12-18T00:44:11;-8.20;99.90
5457;DHT22;2751;49.802;9.944;2022-12-18T00:46:38;-8.20;99.90
5457;DHT22;2751;49.802;9.944;2022-12-18T00:49:05;-8.10;99.90
5457;DHT22;2751;49.802;9.944;2022-12-18T00:51:34;-8.10;99.90
5457;DHT22;2751;49.802;9.944;2022-12-18T00:54:03;-8.20;99.90
5457;DHT22;2751;49.802;9.944;2022-12-18T00:56:30;-8.20;99.90
5457;DHT22;2751;49.802;9.944;2022-12-18T00:58:57;-8.10;99.90
5457;DHT22;2751;49.802;9.944;2022-12-18T01:01:24;-8.10;99.90
5457;DHT22;2751;49.802;9.944;2022-12-18T01:03:51;-8.00;99.90
5457;DHT22;2751;49.802;9.944;2022-12-18T01:06:18;-7.90;99.90
5457;DHT22;2751;49.802;9.944;2022-12-18T01:08:47;-8.10;99.90
5457;DHT22;2751;49.802;9.944;2022-12-18T01:11:18;-8.10;99.90
5457;DHT22;2751;49.802;9.944;2022-12-18T01:13:45;-8.10;99.90
5457;DHT22;2751;49.802;9.944;2022-12-18T01:16:13;-8.20;99.90
5457;DHT22;2751;49.802;9.944;2022-12-18T01:18:40;-8.10;99.90
5457;DHT22;2751;49.802;9.944;2022-12-18T01:21:09;-8.10;99.90
5457;DHT22;2751;49.802;9.944;2022-12-18T01:23:36;-8.00;99.90
5457;DHT22;2751;49.802;9.944;2022-12-18T01:26:07;-8.00;99.90
5457;DHT22;2751;49.802;9.944;2022-12-18T01:28:36;-8.00;99.90
5457;DHT22;2751;49.802;9.944;2022-12-18T01:31:10;-8.10;99.90
5457;DHT22;2751;49.802;9.944;2022-12-18T01:33:37;-8.10;99.90
5457;DHT22;2751;49.802;9.944;2022-12-18T01:36:05;-8.10;99.90
5457;DHT22;2751;49.802;9.944;2022-12-18T01:38:32;-8.00;99.90
5457;DHT22;2751;49.802;9.944;2022-12-18T01:40:59;-7.90;99.90
5457;DHT22;2751;49.802;9.944;2022-12-18T01:46:21;-8.40;99.90
5457;DHT22;2751;49.802;9.944;2022-12-18T01:48:53;-7.80;99.90
5457;DHT22;2751;49.802;9.944;2022-12-18T01:51:22;-7.80;99.90
5457;DHT22;2751;49.802;9.944;2022-12-18T01:53:49;-7.90;99.90
5457;DHT22;2751;49.802;9.944;2022-12-18T01:56:18;-7.90;99.90
5457;DHT22;2751;49.802;9.944;2022-12-18T01:58:51;-7.90;99.90
5457;DHT22;2751;49.802;9.944;2022-12-18T02:01:23;-7.90;99.90
5457;DHT22;2751;49.802;9.944;2022-12-18T02:03:50;-7.90;99.90
5457;DHT22;2751;49.802;9.944;2022-12-18T02:06:20;-7.90;99.90
5457;DHT22;2751;49.802;9.944;2022-12-18T02:09:02;-7.90;99.90
5457;DHT22;2751;49.802;9.944;2022-12-18T02:11:41;-7.90;99.90
5457;DHT22;2751;49.802;9.944;2022-12-18T02:14:19;-7.90;99.90
5457;DHT22;2751;49.802;9.944;2022-12-18T02:16:56;-7.90;99.90
5457;DHT22;2751;49.802;9.944;2022-12-18T02:19:39;-7.90;99.90
5457;DHT22;2751;49.802;9.944;2022-12-18T02:22:24;-7.60;99.90
5457;DHT22;2751;49.802;9.944;2022-12-18T02:25:06;-7.90;99.90
5457;DHT22;2751;49.802;9.944;2022-12-18T02:27:45;-7.90;99.90
5457;DHT22;2751;49.802;9.944;2022-12-18T02:30:14;-8.00;99.90
5457;DHT22;2751;49.802;9.944;2022-12-18T02:32:45;-8.00;99.90
5457;DHT22;2751;49.802;9.944;2022-12-18T02:35:17;-8.00;99.90
5457;DHT22;2751;49.802;9.944;2022-12-18T02:37:47;-7.80;99.90
5457;DHT22;2751;49.802;9.944;2022-12-18T02:40:15;-8.10;99.90
5457;DHT22;2751;49.802;9.944;2022-12-18T02:42:43;-8.10;99.90
5457;DHT22;2751;49.802;9.944;2022-12-18T02:45:10;-8.10;99.90
5457;DHT22;2751;49.802;9.944;2022-12-18T02:47:40;-8.10;99.90
5457;DHT22;2751;49.802;9.944;2022-12-18T02:50:16;-8.20;99.90
5457;DHT22;2751;49.802;9.944;2022-12-18T02:52:53;-8.10;99.90
5457;DHT22;2751;49.802;9.944;2022-12-18T02:55:31;-8.10;99.90
5457;DHT22;2751;49.802;9.944;2022-12-18T02:58:07;-8.10;99.90
5457;DHT22;2751;49.802;9.944;2022-12-18T03:00:41;-8.10;99.90
5457;DHT22;2751;49.802;9.944;2022-12-18T03:03:13;-8.10;99.90
5457;DHT22;2751;49.802;9.944;2022-12-18T03:05:45;-8.10;99.90
5457;DHT22;2751;49.802;9.944;2022-12-18T03:08:17;-8.10;99.90
5457;DHT22;2751;49.802;9.944;2022-12-18T03:10:49;-8.10;99.90
5457;DHT22;2751;49.802;9.944;2022-12-18T03:13:23;-8.20;99.90
5457;DHT22;2751;49.802;9.944;2022-12-18T03:15:57;-8.30;99.90
5457;DHT22;2751;49.802;9.944;2022-12-18T03:18:30;-8.30;99.90
5457;DHT22;2751;49.802;9.944;2022-12-18T03:21:02;-8.20;99.90
5457;DHT22;2751;49.802;9.944;2022-12-18T03:23:37;-8.30;99.90
5457;DHT22;2751;49.802;9.944;2022-12-18T03:26:10;-8.40;99.90
5457;DHT22;2751;49.802;9.944;2022-12-18T03:28:44;-8.50;99.90
5457;DHT22;2751;49.802;9.944;2022-12-18T03:31:14;-8.40;99.90
5457;DHT22;2751;49.802;9.944;2022-12-18T03:33:45;-8.60;99.90
5457;DHT22;2751;49.802;9.944;2022-12-18T03:36:13;-8.60;99.90
5457;DHT22;2751;49.802;9.944;2022-12-18T03:38:41;-8.50;99.90
5457;DHT22;2751;49.802;9.944;2022-12-18T03:41:15;-8.50;99.90
5457;DHT22;2751;49.802;9.944;2022-12-18T03:43:49;-8.60;99.90
5457;DHT22;2751;49.802;9.944;2022-12-18T03:46:24;-8.70;99.90
5457;DHT22;2751;49.802;9.944;2022-12-18T03:48:58;-8.70;99.90
5457;DHT22;2751;49.802;9.944;2022-12-18T03:51:31;-8.70;99.90
5457;DHT22;2751;49.802;9.944;2022-12-18T03:54:03;-8.80;99.90
5457;DHT22;2751;49.802;9.944;2022-12-18T03:56:33;-8.80;99.90
5457;DHT22;2751;49.802;9.944;2022-12-18T03:59:05;-8.90;99.90
5457;DHT22;2751;49.802;9.944;2022-12-18T04:01:34;-9.00;99.90
5457;DHT22;2751;49.802;9.944;2022-12-18T04:04:02;-9.00;99.90
5457;DHT22;2751;49.802;9.944;2022-12-18T04:06:30;-9.00;99.90
5457;DHT22;2751;49.802;9.944;2022-12-18T04:08:58;-9.00;99.90
5457;DHT22;2751;49.802;9.944;2022-12-18T04:11:25;-9.00;99.90
5457;DHT22;2751;49.802;9.944;2022-12-18T04:13:57;-8.90;99.90
5457;DHT22;2751;49.802;9.944;2022-12-18T04:16:26;-8.90;99.90
5457;DHT22;2751;49.802;9.944;2022-12-18T04:18:54;-8.90;99.90
5457;DHT22;2751;49.802;9.944;2022-12-18T04:21:20;-8.90;99.90
5457;DHT22;2751;49.802;9.944;2022-12-18T04:23:48;-8.90;99.90
5457;DHT22;2751;49.802;9.944;2022-12-18T04:26:15;-8.80;99.90
5457;DHT22;2751;49.802;9.944;2022-12-18T04:28:41;-8.70;99.90
5457;DHT22;2751;49.802;9.944;2022-12-18T04:31:08;-8.70;99.90
5457;DHT22;2751;49.802;9.944;2022-12-18T04:33:37;-8.20;99.90
5457;DHT22;2751;49.802;9.944;2022-12-18T04:36:04;-8.60;99.90
5457;DHT22;2751;49.802;9.944;2022-12-18T04:38:31;-8.70;99.90
5457;DHT22;2751;49.802;9.944;2022-12-18T04:40:59;-8.80;99.90
5457;DHT22;2751;49.802;9.944;2022-12-18T04:43:25;-8.80;99.90
5457;DHT22;2751;49.802;9.944;2022-12-18T04:45:52;-8.70;99.90
5457;DHT22;2751;49.802;9.944;2022-12-18T04:48:20;-8.70;99.90
5457;DHT22;2751;49.802;9.944;2022-12-18T04:50:48;-8.70;99.90
5457;DHT22;2751;49.802;9.944;2022-12-18T04:53:15;-8.40;99.90
5457;DHT22;2751;49.802;9.944;2022-12-18T04:55:42;-8.70;99.90
5457;DHT22;2751;49.802;9.944;2022-12-18T04:58:09;-8.70;99.90
5457;DHT22;2751;49.802;9.944;2022-12-18T05:00:35;-8.70;99.90
5457;DHT22;2751;49.802;9.944;2022-12-18T05:03:02;-8.80;99.90
5457;DHT22;2751;49.802;9.944;2022-12-18T05:05:29;-8.80;99.90
5457;DHT22;2751;49.802;9.944;2022-12-18T05:07:58;-8.90;99.90
5457;DHT22;2751;49.802;9.944;2022-12-18T05:10:24;-9.00;99.90
5457;DHT22;2751;49.802;9.944;2022-12-18T05:12:51;-9.00;99.90
5457;DHT22;2751;49.802;9.944;2022-12-18T05:15:28;-8.90;99.90
5457;DHT22;2751;49.802;9.944;2022-12-18T05:17:56;-8.90;99.90
5457;DHT22;2751;49.802;9.944;2022-12-18T05:20:23;-8.90;99.90
5457;DHT22;2751;49.802;9.944;2022-12-18T05:22:51;-8.90;99.90
5457;DHT22;2751;49.802;9.944;2022-12-18T05:25:20;-8.90;99.90
5457;DHT22;2751;49.802;9.944;2022-12-18T05:27:47;-9.00;99.90
5457;DHT22;2751;49.802;9.944;2022-12-18T05:30:15;-9.10;99.90
5457;DHT22;2751;49.802;9.944;2022-12-18T05:32:42;-9.20;99.90
5457;DHT22;2751;49.802;9.944;2022-12-18T05:35:10;-9.10;99.90
5457;DHT22;2751;49.802;9.944;2022-12-18T05:37:37;-9.20;99.90
5457;DHT22;2751;49.802;9.944;2022-12-18T05:40:05;-9.30;99.90
5457;DHT22;2751;49.802;9.944;2022-12-18T05:42:34;-9.40;99.90
5457;DHT22;2751;49.802;9.944;2022-12-18T05:45:01;-9.50;99.90
5457;DHT22;2751;49.802;9.944;2022-12-18T05:47:28;-9.50;99.90
5457;DHT22;2751;49.802;9.944;2022-12-18T05:49:55;-9.50;99.90
5457;DHT22;2751;49.802;9.944;2022-12-18T05:52:22;-9.60;99.90
5457;DHT22;2751;49.802;9.944;2022-12-18T05:54:50;-9.50;99.90
5457;DHT22;2751;49.802;9.944;2022-12-18T05:57:16;-9.40;99.90
5457;DHT22;2751;49.802;9.944;2022-12-18T05:59:45;-8.90;99.90
5457;DHT22;2751;49.802;9.944;2022-12-18T06:02:12;-9.40;99.90
5457;DHT22;2751;49.802;9.944;2022-12-18T06:04:38;-9.50;99.90
5457;DHT22;2751;49.802;9.944;2022-12-18T06:07:05;-9.40;99.90
5457;DHT22;2751;49.802;9.944;2022-12-18T06:09:34;-9.30;99.90
5457;DHT22;2751;49.802;9.944;2022-12-18T06:12:00;-9.70;99.90
5457;DHT22;2751;49.802;9.944;2022-12-18T06:14:27;-9.20;99.90
5457;DHT22;2751;49.802;9.944;2022-12-18T06:16:56;-9.00;99.90
5457;DHT22;2751;49.802;9.944;2022-12-18T06:19:23;-9.10;99.90
5457;DHT22;2751;49.802;9.944;2022-12-18T06:21:49;-8.70;99.90
5457;DHT22;2751;49.802;9.944;2022-12-18T06:24:16;-8.90;99.90
5457;DHT22;2751;49.802;9.944;2022-12-18T06:26:43;-8.90;99.90
5457;DHT22;2751;49.802;9.944;2022-12-18T06:29:10;-8.80;99.90
5457;DHT22;2751;49.802;9.944;2022-12-18T06:31:37;-8.60;99.90
5457;DHT22;2751;49.802;9.944;2022-12-18T06:34:06;-8.60;99.90
5457;DHT22;2751;49.802;9.944;2022-12-18T06:36:32;-8.50;99.90
5457;DHT22;2751;49.802;9.944;2022-12-18T06:38:59;-8.50;99.90
5457;DHT22;2751;49.802;9.944;2022-12-18T06:41:26;-8.40;99.90
5457;DHT22;2751;49.802;9.944;2022-12-18T06:43:53;-8.30;99.90
5457;DHT22;2751;49.802;9.944;2022-12-18T06:46:20;-8.30;99.90
5457;DHT22;2751;49.802;9.944;2022-12-18T06:48:48;-8.20;99.90
5457;DHT22;2751;49.802;9.944;2022-12-18T06:51:18;-8.10;99.90
5457;DHT22;2751;49.802;9.944;2022-12-18T06:53:45;-8.10;99.90
5457;DHT22;2751;49.802;9.944;2022-12-18T06:56:12;-8.00;99.90
5457;DHT22;2751;49.802;9.944;2022-12-18T06:58:39;-7.90;99.90
5457;DHT22;2751;49.802;9.944;2022-12-18T07:01:08;-7.80;99.90
5457;DHT22;2751;49.802;9.944;2022-12-18T07:03:36;-7.80;99.90
5457;DHT22;2751;49.802;9.944;2022-12-18T07:06:03;-7.70;99.90
5457;DHT22;2751;49.802;9.944;2022-12-18T07:08:32;-7.60;99.90
5457;DHT22;2751;49.802;9.944;2022-12-18T07:10:59;-7.40;99.90
5457;DHT22;2751;49.802;9.944;2022-12-18T07:13:29;-7.30;99.90
5457;DHT22;2751;49.802;9.944;2022-12-18T07:16:02;-7.30;99.90
5457;DHT22;2751;49.802;9.944;2022-12-18T07:18:29;-7.20;99.90
5457;DHT22;2751;49.802;9.944;2022-12-18T07:20:56;-7.20;99.90
5457;DHT22;2751;49.802;9.944;2022-12-18T07:23:23;-7.20;99.90
5457;DHT22;2751;49.802;9.944;2022-12-18T07:25:51;-7.30;99.90
5457;DHT22;2751;49.802;9.944;2022-12-18T07:28:18;-7.40;99.90
5457;DHT22;2751;49.802;9.944;2022-12-18T07:30:45;-7.40;99.90
5457;DHT22;2751;49.802;9.944;2022-12-18T07:33:12;-7.30;99.90
5457;DHT22;2751;49.802;9.944;2022-12-18T07:35:39;-7.30;99.90
5457;DHT22;2751;49.802;9.944;2022-12-18T07:38:06;-7.40;99.90
5457;DHT22;2751;49.802;9.944;2022-12-18T07:40:32;-7.30;99.90
5457;DHT22;2751;49.802;9.944;2022-12-18T07:43:01;-7.30;99.90
5457;DHT22;2751;49.802;9.944;2022-12-18T07:45:27;-7.20;99.90
5457;DHT22;2751;49.802;9.944;2022-12-18T07:47:54;-7.20;99.90
5457;DHT22;2751;49.802;9.944;2022-12-18T07:50:22;-7.20;99.90
5457;DHT22;2751;49.802;9.944;2022-12-18T07:52:49;-7.00;99.90
5457;DHT22;2751;49.802;9.944;2022-12-18T07:55:16;-7.00;99.90
5457;DHT22;2751;49.802;9.944;2022-12-18T07:57:43;-6.80;99.90
5457;DHT22;2751;49.802;9.944;2022-12-18T08:00:14;-6.60;99.90
5457;DHT22;2751;49.802;9.944;2022-12-18T08:02:41;-6.60;99.90
5457;DHT22;2751;49.802;9.944;2022-12-18T08:05:08;-6.50;99.90
5457;DHT22;2751;49.802;9.944;2022-12-18T08:07:35;-6.50;99.90
5457;DHT22;2751;49.802;9.944;2022-12-18T08:10:02;-6.40;99.90
5457;DHT22;2751;49.802;9.944;2022-12-18T08:12:29;-6.30;99.90
5457;DHT22;2751;49.802;9.944;2022-12-18T08:14:56;-6.30;99.90
5457;DHT22;2751;49.802;9.944;2022-12-18T08:17:25;-6.20;99.90
5457;DHT22;2751;49.802;9.944;2022-12-18T08:19:51;-6.30;99.90
5457;DHT22;2751;49.802;9.944;2022-12-18T08:22:18;-6.20;99.90
5457;DHT22;2751;49.802;9.944;2022-12-18T08:24:45;-6.20;99.90
5457;DHT22;2751;49.802;9.944;2022-12-18T08:27:12;-6.10;99.90
5457;DHT22;2751;49.802;9.944;2022-12-18T08:29:39;-6.10;99.90
5457;DHT22;2751;49.802;9.944;2022-12-18T08:32:06;-6.00;99.90
5457;DHT22;2751;49.802;9.944;2022-12-18T08:34:34;-6.00;99.90
5457;DHT22;2751;49.802;9.944;2022-12-18T08:37:01;-5.80;99.90
5457;DHT22;2751;49.802;9.944;2022-12-18T08:39:29;-5.80;99.90
5457;DHT22;2751;49.802;9.944;2022-12-18T08:41:55;-5.70;99.90
5457;DHT22;2751;49.802;9.944;2022-12-18T08:44:40;-5.60;99.90
5457;DHT22;2751;49.802;9.944;2022-12-18T08:47:07;-5.30;99.90
5457;DHT22;2751;49.802;9.944;2022-12-18T08:49:36;-5.40;99.90
5457;DHT22;2751;49.802;9.944;2022-12-18T08:52:03;-5.30;99.90
5457;DHT22;2751;49.802;9.944;2022-12-18T08:54:31;-5.20;99.90
5457;DHT22;2751;49.802;9.944;2022-12-18T08:56:57;-5.30;99.90
5457;DHT22;2751;49.802;9.944;2022-12-18T08:59:24;-5.20;99.90
5457;DHT22;2751;49.802;9.944;2022-12-18T09:01:53;-5.10;99.90
5457;DHT22;2751;49.802;9.944;2022-12-18T09:04:20;-5.10;99.90
5457;DHT22;2751;49.802;9.944;2022-12-18T09:06:48;-4.90;99.90
5457;DHT22;2751;49.802;9.944;2022-12-18T09:09:15;-4.80;99.90
5457;DHT22;2751;49.802;9.944;2022-12-18T09:11:42;-4.80;99.90
5457;DHT22;2751;49.802;9.944;2022-12-18T09:14:10;-4.80;99.90
5457;DHT22;2751;49.802;9.944;2022-12-18T09:16:37;-4.70;99.90
5457;DHT22;2751;49.802;9.944;2022-12-18T09:19:04;-4.70;99.90
5457;DHT22;2751;49.802;9.944;2022-12-18T09:21:33;-4.60;99.90
5457;DHT22;2751;49.802;9.944;2022-12-18T09:24:01;-4.50;99.90
5457;DHT22;2751;49.802;9.944;2022-12-18T09:26:28;-4.30;99.90
5457;DHT22;2751;49.802;9.944;2022-12-18T09:28:56;-4.20;99.90
5457;DHT22;2751;49.802;9.944;2022-12-18T09:31:23;-4.20;99.90
5457;DHT22;2751;49.802;9.944;2022-12-18T09:33:51;-3.60;99.90
5457;DHT22;2751;49.802;9.944;2022-12-18T09:36:18;-4.00;99.90
5457;DHT22;2751;49.802;9.944;2022-12-18T09:38:45;-3.90;99.90
5457;DHT22;2751;49.802;9.944;2022-12-18T09:41:37;-3.80;99.90
5457;DHT22;2751;49.802;9.944;2022-12-18T09:44:13;-3.80;99.90
5457;DHT22;2751;49.802;9.944;2022-12-18T09:46:46;-3.60;99.90
5457;DHT22;2751;49.802;9.944;2022-12-18T09:49:17;-3.50;99.90
5457;DHT22;2751;49.802;9.944;2022-12-18T09:51:48;-3.50;99.90
5457;DHT22;2751;49.802;9.944;2022-12-18T09:54:20;-3.60;99.90
5457;DHT22;2751;49.802;9.944;2022-12-18T09:56:50;-3.10;99.90
5457;DHT22;2751;49.802;9.944;2022-12-18T09:59:22;-2.70;99.90
5457;DHT22;2751;49.802;9.944;2022-12-18T10:01:50;-2.90;99.90
5457;DHT22;2751;49.802;9.944;2022-12-18T10:04:16;-2.90;99.90
5457;DHT22;2751;49.802;9.944;2022-12-18T10:06:48;-2.70;99.90
5457;DHT22;2751;49.802;9.944;2022-12-18T10:09:24;-2.70;99.90
5457;DHT22;2751;49.802;9.944;2022-12-18T10:12:02;-2.70;99.90
5457;DHT22;2751;49.802;9.944;2022-12-18T10:14:40;-2.80;99.90
5457;DHT22;2751;49.802;9.944;2022-12-18T10:17:18;-2.90;99.90
5457;DHT22;2751;49.802;9.944;2022-12-18T10:19:51;-2.80;99.90
5457;DHT22;2751;49.802;9.944;2022-12-18T10:22:33;-2.70;99.90
5457;DHT22;2751;49.802;9.944;2022-12-18T10:25:05;-2.60;99.90
5457;DHT22;2751;49.802;9.944;2022-12-18T10:27:38;-2.60;99.90
5457;DHT22;2751;49.802;9.944;2022-12-18T10:30:13;-2.50;99.90
5457;DHT22;2751;49.802;9.944;2022-12-18T10:32:40;-2.60;99.90
5457;DHT22;2751;49.802;9.944;2022-12-18T10:35:20;-2.60;99.90
5457;DHT22;2751;49.802;9.944;2022-12-18T10:38:07;-2.70;99.90
5457;DHT22;2751;49.802;9.944;2022-12-18T10:40:51;-2.70;99.90
5457;DHT22;2751;49.802;9.944;2022-12-18T10:43:25;-2.80;99.90
5457;DHT22;2751;49.802;9.944;2022-12-18T10:46:08;-3.00;99.90
5457;DHT22;2751;49.802;9.944;2022-12-18T10:48:41;-2.90;99.90
5457;DHT22;2751;49.802;9.944;2022-12-18T10:51:20;-2.80;99.90
5457;DHT22;2751;49.802;9.944;2022-12-18T10:53:53;-2.70;99.90
5457;DHT22;2751;49.802;9.944;2022-12-18T10:56:21;-2.70;99.90
5457;DHT22;2751;49.802;9.944;2022-12-18T10:58:57;-2.60;99.90
5457;DHT22;2751;49.802;9.944;2022-12-18T11:01:25;-2.70;99.90
5457;DHT22;2751;49.802;9.944;2022-12-18T11:04:07;-2.70;99.90
5457;DHT22;2751;49.802;9.944;2022-12-18T11:06:56;-2.60;99.90
5457;DHT22;2751;49.802;9.944;2022-12-18T11:09:24;-2.50;99.90
5457;DHT22;2751;49.802;9.944;2022-12-18T11:11:53;-2.50;99.90
5457;DHT22;2751;49.802;9.944;2022-12-18T11:14:25;-2.40;99.90
5457;DHT22;2751;49.802;9.944;2022-12-18T11:16:53;-2.20;99.90
5457;DHT22;2751;49.802;9.944;2022-12-18T11:19:26;-2.20;99.90
5457;DHT22;2751;49.802;9.944;2022-12-18T11:21:55;-2.10;99.90
5457;DHT22;2751;49.802;9.944;2022-12-18T11:24:27;-2.00;99.90
5457;DHT22;2751;49.802;9.944;2022-12-18T11:26:55;-2.00;99.90
5457;DHT22;2751;49.802;9.944;2022-12-18T11:29:30;-2.10;99.90
5457;DHT22;2751;49.802;9.944;2022-12-18T11:32:28;-2.00;99.90
5457;DHT22;2751;49.802;9.944;2022-12-18T11:35:02;-1.80;99.90
5457;DHT22;2751;49.802;9.944;2022-12-18T11:37:30;-1.60;99.90
5457;DHT22;2751;49.802;9.944;2022-12-18T11:40:00;-1.10;99.90
5457;DHT22;2751;49.802;9.944;2022-12-18T11:42:34;-1.20;99.90
5457;DHT22;2751;49.802;9.944;2022-12-18T11:45:25;-1.30;99.90
5457;DHT22;2751;49.802;9.944;2022-12-18T11:47:58;-1.20;99.90
5457;DHT22;2751;49.802;9.944;2022-12-18T11:50:31;-1.00;99.90
5457;DHT22;2751;49.802;9.944;2022-12-18T11:53:00;-0.90;99.90
5457;DHT22;2751;49.802;9.944;2022-12-18T11:55:32;-0.90;99.90
5457;DHT22;2751;49.802;9.944;2022-12-18T11:58:09;-0.80;99.90
5457;DHT22;2751;49.802;9.944;2022-12-18T12:00:46;-1.10;99.90
5457;DHT22;2751;49.802;9.944;2022-12-18T12:03:36;-1.10;99.90
5457;DHT22;2751;49.802;9.944;2022-12-18T12:06:12;-1.00;99.90
5457;DHT22;2751;49.802;9.944;2022-12-18T12:08:54;-0.90;99.90
5457;DHT22;2751;49.802;9.944;2022-12-18T12:11:31;-0.90;99.90
5457;DHT22;2751;49.802;9.944;2022-12-18T12:14:22;-0.80;99.90
5457;DHT22;2751;49.802;9.944;2022-12-18T12:16:58;-0.90;99.90
5457;DHT22;2751;49.802;9.944;2022-12-18T12:19:45;-0.90;99.90
5457;DHT22;2751;49.802;9.944;2022-12-18T12:22:24;-0.80;99.90
5457;DHT22;2751;49.802;9.944;2022-12-18T12:25:04;-0.90;99.90
5457;DHT22;2751;49.802;9.944;2022-12-18T12:27:40;-0.70;99.90
5457;DHT22;2751;49.802;9.944;2022-12-18T12:30:16;-0.70;99.90
5457;DHT22;2751;49.802;9.944;2022-12-18T12:32:54;-0.70;99.90
5457;DHT22;2751;49.802;9.944;2022-12-18T12:35:31;-0.60;99.90
5457;DHT22;2751;49.802;9.944;2022-12-18T12:38:08;-0.50;99.90
5457;DHT22;2751;49.802;9.944;2022-12-18T12:40:41;-0.30;99.90
5457;DHT22;2751;49.802;9.944;2022-12-18T12:43:22;-0.70;99.90
5457;DHT22;2751;49.802;9.944;2022-12-18T12:45:54;-0.60;99.90
5457;DHT22;2751;49.802;9.944;2022-12-18T12:48:33;-0.50;99.90
5457;DHT22;2751;49.802;9.944;2022-12-18T12:51:03;-0.40;99.90
5457;DHT22;2751;49.802;9.944;2022-12-18T12:53:34;-0.30;99.90
5457;DHT22;2751;49.802;9.944;2022-12-18T12:56:03;-0.40;99.90
5457;DHT22;2751;49.802;9.944;2022-12-18T12:58:36;-0.30;99.90
5457;DHT22;2751;49.802;9.944;2022-12-18T13:01:11;-0.10;99.90
5457;DHT22;2751;49.802;9.944;2022-12-18T13:03:50;-0.30;99.90
5457;DHT22;2751;49.802;9.944;2022-12-18T13:06:27;0.00;99.90
5457;DHT22;2751;49.802;9.944;2022-12-18T13:08:58;-0.40;99.90
5457;DHT22;2751;49.802;9.944;2022-12-18T13:11:32;-0.60;99.90
5457;DHT22;2751;49.802;9.944;2022-12-18T13:14:22;-0.70;99.90
5457;DHT22;2751;49.802;9.944;2022-12-18T13:16:49;-0.70;99.90
5457;DHT22;2751;49.802;9.944;2022-12-18T13:19:23;-0.60;99.90
5457;DHT22;2751;49.802;9.944;2022-12-18T13:21:54;-0.50;99.90
5457;DHT22;2751;49.802;9.944;2022-12-18T13:24:24;-0.50;99.90
5457;DHT22;2751;49.802;9.944;2022-12-18T13:26:51;-0.50;99.90
5457;DHT22;2751;49.802;9.944;2022-12-18T13:29:40;-0.20;99.90
5457;DHT22;2751;49.802;9.944;2022-12-18T13:32:23;-0.40;99.90
5457;DHT22;2751;49.802;9.944;2022-12-18T13:37:55;-0.50;99.90
5457;DHT22;2751;49.802;9.944;2022-12-18T13:40:53;-0.50;99.90
5457;DHT22;2751;49.802;9.944;2022-12-18T13:43:36;-0.50;99.90
5457;DHT22;2751;49.802;9.944;2022-12-18T13:46:23;-0.60;99.90
5457;DHT22;2751;49.802;9.944;2022-12-18T13:49:01;-0.50;99.90
5457;DHT22;2751;49.802;9.944;2022-12-18T13:51:31;-0.50;99.90
5457;DHT22;2751;49.802;9.944;2022-12-18T13:54:01;-0.50;99.90
5457;DHT22;2751;49.802;9.944;2022-12-18T13:56:31;-0.50;99.90
5457;DHT22;2751;49.802;9.944;2022-12-18T13:59:11;-0.60;99.90
5457;DHT22;2751;49.802;9.944;2022-12-18T14:01:43;-0.70;99.90
5457;DHT22;2751;49.802;9.944;2022-12-18T14:04:11;-0.60;99.90
5457;DHT22;2751;49.802;9.944;2022-12-18T14:06:38;-0.70;99.90
5457;DHT22;2751;49.802;9.944;2022-12-18T14:09:12;-0.60;99.90
5457;DHT22;2751;49.802;9.944;2022-12-18T14:11:40;-0.60;99.90
5457;DHT22;2751;49.802;9.944;2022-12-18T14:14:07;-0.60;99.90
5457;DHT22;2751;49.802;9.944;2022-12-18T14:16:35;-0.60;99.90
5457;DHT22;2751;49.802;9.944;2022-12-18T14:19:03;-0.60;99.90
5457;DHT22;2751;49.802;9.944;2022-12-18T14:21:30;-0.70;99.90
5457;DHT22;2751;49.802;9.944;2022-12-18T14:24:04;-0.70;99.90
5457;DHT22;2751;49.802;9.944;2022-12-18T14:26:33;-0.70;99.90
5457;DHT22;2751;49.802;9.944;2022-12-18T14:29:01;-0.70;99.90
5457;DHT22;2751;49.802;9.944;2022-12-18T14:31:43;-0.70;99.90
5457;DHT22;2751;49.802;9.944;2022-12-18T14:34:15;-0.30;99.90
5457;DHT22;2751;49.802;9.944;2022-12-18T14:36:51;-0.80;99.90
5457;DHT22;2751;49.802;9.944;2022-12-18T14:39:18;-0.70;99.90
5457;DHT22;2751;49.802;9.944;2022-12-18T14:41:48;-0.70;99.90
5457;DHT22;2751;49.802;9.944;2022-12-18T14:44:15;-0.60;99.90
5457;DHT22;2751;49.802;9.944;2022-12-18T14:46:43;-0.60;99.90
5457;DHT22;2751;49.802;9.944;2022-12-18T14:49:20;-0.50;99.90
5457;DHT22;2751;49.802;9.944;2022-12-18T14:51:48;-0.70;99.90
5457;DHT22;2751;49.802;9.944;2022-12-18T14:54:18;-0.70;99.90
5457;DHT22;2751;49.802;9.944;2022-12-18T14:56:48;-0.70;99.90
5457;DHT22;2751;49.802;9.944;2022-12-18T14:59:20;-0.60;99.90
5457;DHT22;2751;49.802;9.944;2022-12-18T15:01:51;-0.80;99.90
5457;DHT22;2751;49.802;9.944;2022-12-18T15:04:27;-0.80;99.90
5457;DHT22;2751;49.802;9.944;2022-12-18T15:07:08;-0.80;99.90
5457;DHT22;2751;49.802;9.944;2022-12-18T15:09:37;-0.40;99.90
5457;DHT22;2751;49.802;9.944;2022-12-18T15:12:15;-0.90;99.90
5457;DHT22;2751;49.802;9.944;2022-12-18T15:14:44;-1.00;99.90
5457;DHT22;2751;49.802;9.944;2022-12-18T15:17:17;-1.00;99.90
5457;DHT22;2751;49.802;9.944;2022-12-18T15:19:46;-1.00;99.90
5457;DHT22;2751;49.802;9.944;2022-12-18T15:22:18;-1.00;99.90
5457;DHT22;2751;49.802;9.944;2022-12-18T15:24:46;-1.00;99.90
5457;DHT22;2751;49.802;9.944;2022-12-18T15:27:27;-1.00;99.90
5457;DHT22;2751;49.802;9.944;2022-12-18T15:30:18;-1.10;99.90
5457;DHT22;2751;49.802;9.944;2022-12-18T15:32:45;-1.10;99.90
5457;DHT22;2751;49.802;9.944;2022-12-18T15:35:15;-1.10;99.90
5457;DHT22;2751;49.802;9.944;2022-12-18T15:37:43;-1.10;99.90
5457;DHT22;2751;49.802;9.944;2022-12-18T15:40:12;-1.20;99.90
5457;DHT22;2751;49.802;9.944;2022-12-18T15:42:41;-1.20;99.90
5457;DHT22;2751;49.802;9.944;2022-12-18T15:45:26;-1.20;99.90
5457;DHT22;2751;49.802;9.944;2022-12-18T15:47:53;-1.10;99.90
5457;DHT22;2751;49.802;9.944;2022-12-18T15:50:20;-1.00;99.90
5457;DHT22;2751;49.802;9.944;2022-12-18T15:52:49;-1.00;99.90
5457;DHT22;2751;49.802;9.944;2022-12-18T15:55:18;-0.80;99.90
5457;DHT22;2751;49.802;9.944;2022-12-18T15:58:04;-0.70;99.90
5457;DHT22;2751;49.802;9.944;2022-12-18T16:00:31;-0.60;99.90
5457;DHT22;2751;49.802;9.944;2022-12-18T16:02:59;-0.60;99.90
5457;DHT22;2751;49.802;9.944;2022-12-18T16:05:28;-0.60;99.90
5457;DHT22;2751;49.802;9.944;2022-12-18T16:07:55;-0.60;99.90
5457;DHT22;2751;49.802;9.944;2022-12-18T16:10:22;-0.70;99.90
5457;DHT22;2751;49.802;9.944;2022-12-18T16:12:50;-0.70;99.90
5457;DHT22;2751;49.802;9.944;2022-12-18T16:15:18;-0.70;99.90
5457;DHT22;2751;49.802;9.944;2022-12-18T16:17:46;-0.60;99.90
5457;DHT22;2751;49.802;9.944;2022-12-18T16:20:14;-0.60;99.90
5457;DHT22;2751;49.802;9.944;2022-12-18T16:22:43;-0.70;99.90
5457;DHT22;2751;49.802;9.944;2022-12-18T16:25:17;-0.60;99.90
5457;DHT22;2751;49.802;9.944;2022-12-18T16:27:44;-0.70;99.90
5457;DHT22;2751;49.802;9.944;2022-12-18T16:30:13;-0.70;99.90
5457;DHT22;2751;49.802;9.944;2022-12-18T16:32:42;-0.70;99.90